createdAt,value
2018-02-15T00:00:25.952Z,0
2018-02-15T00:01:35.624Z,0
2018-02-15T00:02:45.367Z,0
2018-02-15T00:03:54.936Z,0
2018-02-15T00:05:04.654Z,0
2018-02-15T00:06:13.906Z,0
2018-02-15T00:07:23.732Z,0
2018-02-15T00:08:33.521Z,0
2018-02-15T00:09:43.117Z,0
2018-02-15T00:10:52.600Z,0
2018-02-15T00:12:02.802Z,0
2018-02-15T00:13:12.872Z,0
2018-02-15T00:14:21.787Z,0
2018-02-15T00:15:31.504Z,0
2018-02-15T00:16:41.217Z,0
2018-02-15T00:17:50.455Z,0
2018-02-15T00:18:59.372Z,0
2018-02-15T00:20:09.358Z,0
2018-02-15T00:21:19.332Z,0
2018-02-15T00:22:28.780Z,0
2018-02-15T00:23:37.964Z,0
2018-02-15T00:24:47.414Z,0
2018-02-15T00:25:56.866Z,0
2018-02-15T00:27:06.335Z,0
2018-02-15T00:28:15.789Z,0
2018-02-15T00:29:25.239Z,0
2018-02-15T00:30:34.731Z,0
2018-02-15T00:31:44.446Z,0
2018-02-15T00:32:54.441Z,0
2018-02-15T00:34:03.895Z,0
2018-02-15T00:35:13.668Z,0
2018-02-15T00:36:22.853Z,0
2018-02-15T00:37:32.561Z,0
2018-02-15T00:38:42.284Z,0
2018-02-15T00:39:51.477Z,0
2018-02-15T00:41:00.931Z,0
2018-02-15T00:42:10.644Z,0
2018-02-15T00:43:20.355Z,0
2018-02-15T00:44:29.004Z,0
2018-02-15T00:45:38.832Z,0
2018-02-15T00:46:48.283Z,0
2018-02-15T00:47:57.763Z,0
2018-02-15T00:49:07.221Z,0
2018-02-15T00:50:16.402Z,0
2018-02-15T00:51:26.114Z,0
2018-02-15T00:52:35.845Z,0
2018-02-15T00:53:45.575Z,0
2018-02-15T00:54:55.568Z,0
2018-02-15T00:56:04.222Z,0
2018-02-15T00:57:13.937Z,0
2018-02-15T00:58:23.913Z,0
2018-02-15T00:59:33.378Z,0
2018-02-15T01:00:42.870Z,0
2018-02-15T01:01:52.581Z,0
2018-02-15T01:03:02.585Z,0
2018-02-15T01:04:12.058Z,0
2018-02-15T01:05:21.769Z,0
2018-02-15T01:06:30.971Z,0
2018-02-15T01:07:40.463Z,0
2018-02-15T01:08:50.272Z,0
2018-02-15T01:09:59.722Z,0
2018-02-15T01:11:09.460Z,0
2018-02-15T01:12:18.737Z,0
2018-02-15T01:13:28.261Z,0
2018-02-15T01:14:38.040Z,0
2018-02-15T01:15:47.225Z,0
2018-02-15T01:16:56.406Z,0
2018-02-15T01:18:06.423Z,0
2018-02-15T01:19:16.435Z,0
2018-02-15T01:20:26.143Z,0
2018-02-15T01:21:35.127Z,0
2018-02-15T01:22:44.844Z,0
2018-02-15T01:23:54.594Z,0
2018-02-15T01:25:04.053Z,0
2018-02-15T01:26:13.795Z,0
2018-02-15T01:27:23.247Z,0
2018-02-15T01:28:32.481Z,0
2018-02-15T01:29:42.006Z,0
2018-02-15T01:30:51.452Z,0
2018-02-15T01:32:01.427Z,0
2018-02-15T01:33:10.904Z,0
2018-02-15T01:34:20.999Z,0
2018-02-15T01:35:30.303Z,0
2018-02-15T01:36:39.810Z,0
2018-02-15T01:37:49.383Z,0
2018-02-15T01:38:59.364Z,0
2018-02-15T01:40:08.809Z,0
2018-02-15T01:41:18.254Z,0
2018-02-15T01:42:28.277Z,0
2018-02-15T01:43:38.513Z,0
2018-02-15T01:44:47.712Z,0
2018-02-15T01:45:57.324Z,0
2018-02-15T01:47:07.102Z,0
2018-02-15T01:48:16.858Z,0
2018-02-15T01:49:26.879Z,0
2018-02-15T01:50:36.066Z,0
2018-02-15T01:51:45.515Z,0
2018-02-15T01:52:55.000Z,0
2018-02-15T01:54:04.449Z,0
2018-02-15T01:55:13.929Z,0
2018-02-15T01:56:23.630Z,0
2018-02-15T01:57:33.609Z,0
2018-02-15T01:58:43.097Z,0
2018-02-15T01:59:52.867Z,0
2018-02-15T02:01:02.141Z,0
2018-02-15T02:02:11.594Z,0
2018-02-15T02:03:21.577Z,0
2018-02-15T02:04:30.933Z,0
2018-02-15T02:05:39.923Z,0
2018-02-15T02:06:49.488Z,0
2018-02-15T02:07:59.262Z,0
2018-02-15T02:09:08.720Z,0
2018-02-15T02:10:18.447Z,0
2018-02-15T02:11:28.166Z,0
2018-02-15T02:12:37.614Z,0
2018-02-15T02:13:47.066Z,0
2018-02-15T02:14:56.519Z,0
2018-02-15T02:16:06.239Z,0
2018-02-15T02:17:15.171Z,0
2018-02-15T02:18:24.633Z,0
2018-02-15T02:19:34.358Z,0
2018-02-15T02:20:43.549Z,0
2018-02-15T02:21:53.536Z,0
2018-02-15T02:23:03.001Z,0
2018-02-15T02:24:12.458Z,0
2018-02-15T02:25:21.914Z,0
2018-02-15T02:26:31.644Z,0
2018-02-15T02:27:40.833Z,0
2018-02-15T02:28:50.832Z,0
2018-02-15T02:30:00.041Z,0
2018-02-15T02:31:09.768Z,0
2018-02-15T02:32:19.223Z,0
2018-02-15T02:33:28.955Z,0
2018-02-15T02:34:38.951Z,0
2018-02-15T02:35:48.424Z,0
2018-02-15T02:36:58.145Z,0
2018-02-15T02:38:07.870Z,0
2018-02-15T02:39:17.327Z,0
2018-02-15T02:40:27.050Z,0
2018-02-15T02:41:36.505Z,0
2018-02-15T02:42:46.221Z,0
2018-02-15T02:43:55.934Z,0
2018-02-15T02:45:04.850Z,0
2018-02-15T02:46:14.037Z,0
2018-02-15T02:47:23.760Z,0
2018-02-15T02:48:33.492Z,0
2018-02-15T02:49:42.683Z,0
2018-02-15T02:50:51.865Z,0
2018-02-15T02:52:01.588Z,0
2018-02-15T02:53:11.304Z,0
2018-02-15T02:54:21.019Z,0
2018-02-15T02:55:30.744Z,0
2018-02-15T02:56:40.198Z,0
2018-02-15T02:57:49.914Z,0
2018-02-15T02:58:59.898Z,0
2018-02-15T03:00:09.359Z,0
2018-02-15T03:01:18.541Z,0
2018-02-15T03:02:28.532Z,0
2018-02-15T03:03:38.508Z,0
2018-02-15T03:04:48.244Z,0
2018-02-15T03:05:57.959Z,0
2018-02-15T03:07:06.879Z,0
2018-02-15T03:08:16.064Z,0
2018-02-15T03:09:25.525Z,0
2018-02-15T03:10:34.699Z,0
2018-02-15T03:11:44.683Z,0
2018-02-15T03:12:53.865Z,0
2018-02-15T03:14:03.579Z,0
2018-02-15T03:15:12.504Z,0
2018-02-15T03:16:22.479Z,0
2018-02-15T03:17:31.396Z,0
2018-02-15T03:18:40.851Z,0
2018-02-15T03:19:50.033Z,0
2018-02-15T03:20:59.745Z,0
2018-02-15T03:22:09.193Z,0
2018-02-15T03:23:18.646Z,0
2018-02-15T03:24:28.090Z,0
2018-02-15T03:25:37.804Z,0
2018-02-15T03:26:46.986Z,0
2018-02-15T03:27:56.429Z,0
2018-02-15T03:29:06.404Z,0
2018-02-15T03:30:16.121Z,0
2018-02-15T03:31:26.102Z,0
2018-02-15T03:32:35.820Z,0
2018-02-15T03:33:45.008Z,0
2018-02-15T03:34:54.191Z,0
2018-02-15T03:36:03.372Z,0
2018-02-15T03:37:13.103Z,0
2018-02-15T03:38:22.817Z,0
2018-02-15T03:39:32.801Z,0
2018-02-15T03:40:42.517Z,0
2018-02-15T03:41:52.227Z,0
2018-02-15T03:43:01.941Z,0
2018-02-15T03:44:11.394Z,0
2018-02-15T03:45:20.862Z,0
2018-02-15T03:46:30.838Z,0
2018-02-15T03:47:40.550Z,0
2018-02-15T03:48:49.999Z,0
2018-02-15T03:49:59.182Z,0
2018-02-15T03:51:08.895Z,0
2018-02-15T03:52:18.611Z,0
2018-02-15T03:53:28.057Z,0
2018-02-15T03:54:37.777Z,0
2018-02-15T03:55:47.759Z,0
2018-02-15T03:56:57.737Z,0
2018-02-15T03:58:07.456Z,0
2018-02-15T03:59:16.904Z,0
2018-02-15T04:00:25.820Z,0
2018-02-15T04:01:35.266Z,0
2018-02-15T04:02:44.971Z,0
2018-02-15T04:03:54.420Z,0
2018-02-15T04:05:03.604Z,0
2018-02-15T04:06:13.059Z,0
2018-02-15T04:07:22.240Z,0
2018-02-15T04:08:31.688Z,0
2018-02-15T04:09:40.869Z,0
2018-02-15T04:10:50.848Z,0
2018-02-15T04:12:00.566Z,0
2018-02-15T04:13:10.284Z,0
2018-02-15T04:14:20.001Z,0
2018-02-15T04:15:29.716Z,0
2018-02-15T04:16:39.690Z,0
2018-02-15T04:17:48.607Z,0
2018-02-15T04:18:58.062Z,0
2018-02-15T04:20:07.777Z,0
2018-02-15T04:21:17.751Z,0
2018-02-15T04:22:26.958Z,0
2018-02-15T04:23:36.674Z,0
2018-02-15T04:24:46.120Z,0
2018-02-15T04:25:55.572Z,0
2018-02-15T04:27:05.020Z,0
2018-02-15T04:28:14.202Z,0
2018-02-15T04:29:23.920Z,0
2018-02-15T04:30:33.107Z,0
2018-02-15T04:31:43.085Z,0
2018-02-15T04:32:52.809Z,0
2018-02-15T04:34:02.527Z,0
2018-02-15T04:35:11.444Z,0
2018-02-15T04:36:20.901Z,0
2018-02-15T04:37:30.617Z,0
2018-02-15T04:38:39.533Z,0
2018-02-15T04:39:48.719Z,0
2018-02-15T04:40:57.901Z,0
2018-02-15T04:42:07.349Z,0
2018-02-15T04:43:16.795Z,0
2018-02-15T04:44:25.706Z,0
2018-02-15T04:45:34.893Z,0
2018-02-15T04:46:44.338Z,0
2018-02-15T04:47:53.523Z,0
2018-02-15T04:49:02.968Z,0
2018-02-15T04:50:12.418Z,0
2018-02-15T04:51:21.864Z,0
2018-02-15T04:52:31.082Z,0
2018-02-15T04:53:40.239Z,0
2018-02-15T04:54:49.691Z,0
2018-02-15T04:55:58.890Z,0
2018-02-15T04:57:08.648Z,0
2018-02-15T04:58:18.369Z,0
2018-02-15T04:59:28.351Z,0
2018-02-15T05:00:38.333Z,0
2018-02-15T05:01:47.253Z,0
2018-02-15T05:02:56.709Z,0
2018-02-15T05:04:06.155Z,0
2018-02-15T05:05:15.728Z,0
2018-02-15T05:06:25.176Z,0
2018-02-15T05:07:34.885Z,0
2018-02-15T05:08:44.596Z,0
2018-02-15T05:09:53.512Z,0
2018-02-15T05:11:03.047Z,0
2018-02-15T05:12:12.789Z,0
2018-02-15T05:13:22.241Z,0
2018-02-15T05:14:31.686Z,0
2018-02-15T05:15:41.298Z,0
2018-02-15T05:16:51.010Z,0
2018-02-15T05:18:00.984Z,0
2018-02-15T05:19:10.961Z,0
2018-02-15T05:20:20.414Z,0
2018-02-15T05:21:30.398Z,0
2018-02-15T05:22:39.360Z,0
2018-02-15T05:23:48.541Z,0
2018-02-15T05:24:57.982Z,0
2018-02-15T05:26:07.702Z,0
2018-02-15T05:27:17.145Z,0
2018-02-15T05:28:26.337Z,0
2018-02-15T05:29:36.191Z,0
2018-02-15T05:30:46.160Z,0
2018-02-15T05:31:55.876Z,0
2018-02-15T05:33:05.598Z,0
2018-02-15T05:34:15.299Z,0
2018-02-15T05:35:25.013Z,0
2018-02-15T05:36:34.459Z,0
2018-02-15T05:37:43.904Z,0
2018-02-15T05:38:53.921Z,0
2018-02-15T05:40:03.360Z,0
2018-02-15T05:41:12.809Z,0
2018-02-15T05:42:22.787Z,0
2018-02-15T05:43:32.768Z,0
2018-02-15T05:44:42.762Z,0
2018-02-15T05:45:52.676Z,0
2018-02-15T05:47:02.396Z,0
2018-02-15T05:48:11.581Z,0
2018-02-15T05:49:21.094Z,0
2018-02-15T05:50:30.804Z,0
2018-02-15T05:51:40.513Z,0
2018-02-15T05:52:50.259Z,0
2018-02-15T05:53:59.756Z,0
2018-02-15T05:55:09.467Z,0
2018-02-15T05:56:19.301Z,0
2018-02-15T05:57:29.141Z,0
2018-02-15T05:58:38.860Z,0
2018-02-15T05:59:48.375Z,0
2018-02-15T06:00:58.093Z,0
2018-02-15T06:02:07.282Z,0
2018-02-15T06:03:17.237Z,0
2018-02-15T06:04:26.977Z,0
2018-02-15T06:05:36.528Z,0
2018-02-15T06:06:45.774Z,0
2018-02-15T06:07:55.481Z,0
2018-02-15T06:09:04.708Z,0
2018-02-15T06:10:14.230Z,0
2018-02-15T06:11:24.245Z,0
2018-02-15T06:12:34.051Z,0
2018-02-15T06:13:43.773Z,0
2018-02-15T06:14:53.044Z,0
2018-02-15T06:16:02.756Z,0
2018-02-15T06:17:12.480Z,0
2018-02-15T06:18:21.743Z,0
2018-02-15T06:19:31.726Z,0
2018-02-15T06:20:41.173Z,0
2018-02-15T06:21:50.942Z,0
2018-02-15T06:23:00.457Z,0
2018-02-15T06:24:09.654Z,0
2018-02-15T06:25:19.108Z,0
2018-02-15T06:26:28.825Z,0
2018-02-15T06:27:38.008Z,0
2018-02-15T06:28:47.195Z,0
2018-02-15T06:29:56.916Z,0
2018-02-15T06:31:06.361Z,0
2018-02-15T06:32:15.279Z,0
2018-02-15T06:33:24.994Z,0
2018-02-15T06:34:34.757Z,0
2018-02-15T06:35:44.513Z,0
2018-02-15T06:36:54.263Z,0
2018-02-15T06:38:04.041Z,0
2018-02-15T06:39:13.553Z,0
2018-02-15T06:40:23.011Z,0
2018-02-15T06:41:32.737Z,0
2018-02-15T06:42:41.920Z,0
2018-02-15T06:43:51.633Z,0
2018-02-15T06:45:01.623Z,0
2018-02-15T06:46:11.352Z,0
2018-02-15T06:47:20.919Z,0
2018-02-15T06:48:30.104Z,0
2018-02-15T06:49:39.295Z,0
2018-02-15T06:50:49.010Z,0
2018-02-15T06:51:58.468Z,0
2018-02-15T06:53:08.157Z,0
2018-02-15T06:54:17.911Z,0
2018-02-15T06:55:27.363Z,0
2018-02-15T06:56:36.548Z,0
2018-02-15T06:57:45.997Z,0
2018-02-15T06:58:55.706Z,0
2018-02-15T07:00:04.623Z,0
2018-02-15T07:01:14.395Z,0
2018-02-15T07:02:24.419Z,0
2018-02-15T07:03:34.398Z,0
2018-02-15T07:04:43.850Z,0
2018-02-15T07:05:53.557Z,0
2018-02-15T07:07:03.267Z,0
2018-02-15T07:08:12.450Z,0
2018-02-15T07:09:22.172Z,0
2018-02-15T07:10:31.620Z,0
2018-02-15T07:11:41.330Z,0
2018-02-15T07:12:50.782Z,0
2018-02-15T07:13:59.960Z,5
2018-02-15T07:15:09.140Z,5
2018-02-15T07:16:18.587Z,5
2018-02-15T07:17:28.039Z,5
2018-02-15T07:18:37.749Z,5
2018-02-15T07:19:47.198Z,5
2018-02-15T07:20:56.646Z,5
2018-02-15T07:22:06.368Z,5
2018-02-15T07:23:16.077Z,5
2018-02-15T07:24:25.788Z,5
2018-02-15T07:25:35.565Z,5
2018-02-15T07:26:45.284Z,10
2018-02-15T07:27:55.002Z,10
2018-02-15T07:29:04.446Z,10
2018-02-15T07:30:13.890Z,10
2018-02-15T07:31:23.347Z,10
2018-02-15T07:32:33.058Z,10
2018-02-15T07:33:42.511Z,10
2018-02-15T07:34:51.695Z,10
2018-02-15T07:36:01.407Z,10
2018-02-15T07:37:10.326Z,10
2018-02-15T07:38:20.040Z,15
2018-02-15T07:39:29.750Z,15
2018-02-15T07:40:39.729Z,15
2018-02-15T07:41:49.444Z,15
2018-02-15T07:42:58.632Z,15
2018-02-15T07:44:08.383Z,15
2018-02-15T07:45:18.099Z,15
2018-02-15T07:46:27.028Z,15
2018-02-15T07:47:36.744Z,15
2018-02-15T07:48:46.777Z,15
2018-02-15T07:49:56.225Z,15
2018-02-15T07:51:05.682Z,15
2018-02-15T07:52:15.133Z,15
2018-02-15T07:53:24.323Z,20
2018-02-15T07:54:33.244Z,20
2018-02-15T07:55:42.426Z,20
2018-02-15T07:56:52.143Z,20
2018-02-15T07:58:01.864Z,20
2018-02-15T07:59:11.052Z,25
2018-02-15T08:00:21.034Z,25
2018-02-15T08:01:30.489Z,25
2018-02-15T08:02:39.790Z,30
2018-02-15T08:03:48.741Z,30
2018-02-15T08:04:58.188Z,30
2018-02-15T08:06:07.374Z,25
2018-02-15T08:07:16.556Z,30
2018-02-15T08:08:25.999Z,25
2018-02-15T08:09:35.460Z,25
2018-02-15T08:10:44.912Z,25
2018-02-15T08:11:54.630Z,25
2018-02-15T08:13:03.820Z,25
2018-02-15T08:14:13.016Z,25
2018-02-15T08:15:22.477Z,30
2018-02-15T08:16:32.473Z,30
2018-02-15T08:17:42.228Z,30
2018-02-15T08:18:51.660Z,30
2018-02-15T08:20:01.640Z,30
2018-02-15T08:21:11.089Z,30
2018-02-15T08:22:20.572Z,30
2018-02-15T08:23:29.755Z,30
2018-02-15T08:24:39.479Z,30
2018-02-15T08:25:49.460Z,30
2018-02-15T08:26:59.440Z,35
2018-02-15T08:28:08.888Z,35
2018-02-15T08:29:18.606Z,35
2018-02-15T08:30:28.591Z,35
2018-02-15T08:31:37.515Z,35
2018-02-15T08:32:46.967Z,35
2018-02-15T08:33:56.947Z,35
2018-02-15T08:35:06.667Z,35
2018-02-15T08:36:16.119Z,30
2018-02-15T08:37:25.575Z,30
2018-02-15T08:38:35.046Z,30
2018-02-15T08:39:44.492Z,30
2018-02-15T08:40:53.680Z,35
2018-02-15T08:42:02.877Z,35
2018-02-15T08:43:12.326Z,30
2018-02-15T08:44:22.136Z,25
2018-02-15T08:45:31.360Z,30
2018-02-15T08:46:40.808Z,30
2018-02-15T08:47:50.329Z,30
2018-02-15T08:48:59.511Z,30
2018-02-15T08:50:09.229Z,30
2018-02-15T08:51:18.942Z,30
2018-02-15T08:52:28.654Z,35
2018-02-15T08:53:37.840Z,40
2018-02-15T08:54:46.783Z,40
2018-02-15T08:55:56.508Z,40
2018-02-15T08:57:06.005Z,35
2018-02-15T08:58:15.232Z,40
2018-02-15T08:59:24.678Z,40
2018-02-15T09:00:33.887Z,40
2018-02-15T09:01:43.084Z,45
2018-02-15T09:02:52.530Z,45
2018-02-15T09:04:01.446Z,45
2018-02-15T09:05:10.630Z,45
2018-02-15T09:06:20.081Z,45
2018-02-15T09:07:29.529Z,45
2018-02-15T09:08:38.978Z,50
2018-02-15T09:09:48.690Z,45
2018-02-15T09:10:58.135Z,45
2018-02-15T09:12:07.321Z,40
2018-02-15T09:13:16.768Z,40
2018-02-15T09:14:26.219Z,40
2018-02-15T09:15:36.195Z,40
2018-02-15T09:16:45.375Z,45
2018-02-15T09:17:54.826Z,45
2018-02-15T09:19:04.291Z,45
2018-02-15T09:20:14.266Z,45
2018-02-15T09:21:23.982Z,45
2018-02-15T09:22:33.169Z,45
2018-02-15T09:23:43.144Z,45
2018-02-15T09:24:53.195Z,45
2018-02-15T09:26:02.388Z,40
2018-02-15T09:27:12.252Z,40
2018-02-15T09:28:21.701Z,40
2018-02-15T09:29:31.684Z,40
2018-02-15T09:30:41.137Z,40
2018-02-15T09:31:50.581Z,45
2018-02-15T09:33:00.303Z,50
2018-02-15T09:34:09.774Z,45
2018-02-15T09:35:19.261Z,40
2018-02-15T09:36:28.749Z,35
2018-02-15T09:37:38.198Z,35
2018-02-15T09:38:47.646Z,35
2018-02-15T09:39:57.377Z,35
2018-02-15T09:41:07.101Z,40
2018-02-15T09:42:16.550Z,45
2018-02-15T09:43:26.535Z,50
2018-02-15T09:44:36.250Z,50
2018-02-15T09:45:46.062Z,50
2018-02-15T09:46:54.990Z,45
2018-02-15T09:48:04.176Z,40
2018-02-15T09:49:13.638Z,35
2018-02-15T09:50:22.827Z,35
2018-02-15T09:51:32.300Z,35
2018-02-15T09:52:42.008Z,35
2018-02-15T09:53:51.458Z,40
2018-02-15T09:55:00.914Z,45
2018-02-15T09:56:10.384Z,45
2018-02-15T09:57:20.102Z,45
2018-02-15T09:58:29.285Z,45
2018-02-15T09:59:39.271Z,45
2018-02-15T10:00:48.465Z,50
2018-02-15T10:01:58.189Z,55
2018-02-15T10:03:07.371Z,60
2018-02-15T10:04:16.827Z,60
2018-02-15T10:05:26.277Z,65
2018-02-15T10:06:36.263Z,65
2018-02-15T10:07:45.713Z,60
2018-02-15T10:08:55.173Z,50
2018-02-15T10:10:04.889Z,45
2018-02-15T10:11:14.902Z,50
2018-02-15T10:12:24.614Z,55
2018-02-15T10:13:34.060Z,50
2018-02-15T10:14:43.542Z,45
2018-02-15T10:15:53.286Z,50
2018-02-15T10:17:02.790Z,50
2018-02-15T10:18:12.240Z,50
2018-02-15T10:19:21.707Z,55
2018-02-15T10:20:31.440Z,60
2018-02-15T10:21:40.861Z,60
2018-02-15T10:22:50.732Z,55
2018-02-15T10:23:59.923Z,45
2018-02-15T10:25:09.397Z,45
2018-02-15T10:26:18.584Z,50
2018-02-15T10:27:28.039Z,50
2018-02-15T10:28:38.093Z,50
2018-02-15T10:29:48.084Z,45
2018-02-15T10:30:57.017Z,45
2018-02-15T10:32:06.208Z,45
2018-02-15T10:33:15.953Z,45
2018-02-15T10:34:25.405Z,45
2018-02-15T10:35:34.587Z,50
2018-02-15T10:36:44.374Z,50
2018-02-15T10:37:53.831Z,50
2018-02-15T10:39:03.567Z,45
2018-02-15T10:40:12.752Z,40
2018-02-15T10:41:22.204Z,40
2018-02-15T10:42:32.331Z,40
2018-02-15T10:43:40.982Z,40
2018-02-15T10:44:50.440Z,45
2018-02-15T10:45:59.885Z,40
2018-02-15T10:47:09.338Z,40
2018-02-15T10:48:18.799Z,40
2018-02-15T10:49:28.513Z,40
2018-02-15T10:50:37.965Z,40
2018-02-15T10:51:47.412Z,40
2018-02-15T10:52:57.130Z,40
2018-02-15T10:54:07.111Z,45
2018-02-15T10:55:16.560Z,50
2018-02-15T10:56:25.749Z,55
2018-02-15T10:57:35.466Z,55
2018-02-15T10:58:44.917Z,55
2018-02-15T10:59:54.782Z,55
2018-02-15T11:01:04.760Z,55
2018-02-15T11:02:14.223Z,55
2018-02-15T11:03:23.158Z,50
2018-02-15T11:04:32.926Z,50
2018-02-15T11:05:42.389Z,45
2018-02-15T11:06:52.372Z,50
2018-02-15T11:08:01.856Z,55
2018-02-15T11:09:11.066Z,55
2018-02-15T11:10:20.805Z,60
2018-02-15T11:11:30.252Z,50
2018-02-15T11:12:39.710Z,45
2018-02-15T11:13:49.163Z,35
2018-02-15T11:14:58.901Z,30
2018-02-15T11:16:08.931Z,30
2018-02-15T11:17:18.384Z,40
2018-02-15T11:18:27.846Z,65
2018-02-15T11:19:37.305Z,75
2018-02-15T11:20:46.799Z,65
2018-02-15T11:21:56.250Z,60
2018-02-15T11:23:06.242Z,45
2018-02-15T11:24:14.895Z,35
2018-02-15T11:25:24.883Z,40
2018-02-15T11:26:34.334Z,55
2018-02-15T11:27:44.339Z,65
2018-02-15T11:28:53.791Z,65
2018-02-15T11:30:02.975Z,50
2018-02-15T11:31:12.160Z,50
2018-02-15T11:32:21.881Z,50
2018-02-15T11:33:31.877Z,50
2018-02-15T11:34:41.326Z,45
2018-02-15T11:35:51.054Z,40
2018-02-15T11:37:00.508Z,45
2018-02-15T11:38:10.223Z,40
2018-02-15T11:39:20.008Z,55
2018-02-15T11:40:29.727Z,60
2018-02-15T11:41:38.911Z,60
2018-02-15T11:42:48.367Z,45
2018-02-15T11:43:57.817Z,40
2018-02-15T11:45:07.533Z,40
2018-02-15T11:46:16.977Z,40
2018-02-15T11:47:26.419Z,40
2018-02-15T11:48:35.343Z,40
2018-02-15T11:49:44.838Z,45
2018-02-15T11:50:54.295Z,50
2018-02-15T11:52:03.479Z,50
2018-02-15T11:53:12.927Z,50
2018-02-15T11:54:22.794Z,45
2018-02-15T11:55:32.540Z,40
2018-02-15T11:56:42.002Z,40
2018-02-15T11:57:51.192Z,35
2018-02-15T11:59:00.904Z,35
2018-02-15T12:00:10.093Z,40
2018-02-15T12:01:19.542Z,35
2018-02-15T12:02:29.264Z,35
2018-02-15T12:03:38.721Z,45
2018-02-15T12:04:48.173Z,50
2018-02-15T12:05:57.630Z,45
2018-02-15T12:07:07.349Z,40
2018-02-15T12:08:16.800Z,40
2018-02-15T12:09:26.516Z,35
2018-02-15T12:10:35.965Z,40
2018-02-15T12:11:45.685Z,40
2018-02-15T12:12:55.654Z,35
2018-02-15T12:14:05.369Z,30
2018-02-15T12:15:14.817Z,35
2018-02-15T12:16:23.736Z,35
2018-02-15T12:17:33.193Z,35
2018-02-15T12:18:42.382Z,35
2018-02-15T12:19:52.173Z,40
2018-02-15T12:21:02.201Z,35
2018-02-15T12:22:11.654Z,25
2018-02-15T12:23:21.373Z,20
2018-02-15T12:24:30.564Z,20
2018-02-15T12:25:40.551Z,20
2018-02-15T12:26:50.535Z,25
2018-02-15T12:28:00.266Z,30
2018-02-15T12:29:09.719Z,35
2018-02-15T12:30:19.167Z,45
2018-02-15T12:31:28.885Z,50
2018-02-15T12:32:38.662Z,55
2018-02-15T12:33:47.844Z,55
2018-02-15T12:34:56.765Z,65
2018-02-15T12:36:06.213Z,55
2018-02-15T12:37:15.666Z,50
2018-02-15T12:38:24.888Z,60
2018-02-15T12:39:34.076Z,75
2018-02-15T12:40:43.528Z,70
2018-02-15T12:41:53.246Z,60
2018-02-15T12:43:02.711Z,45
2018-02-15T12:44:12.163Z,35
2018-02-15T12:45:21.876Z,35
2018-02-15T12:46:31.336Z,35
2018-02-15T12:47:40.520Z,35
2018-02-15T12:48:50.278Z,40
2018-02-15T12:49:59.732Z,35
2018-02-15T12:51:09.449Z,35
2018-02-15T12:52:19.165Z,35
2018-02-15T12:53:28.885Z,45
2018-02-15T12:54:38.070Z,55
2018-02-15T12:55:46.992Z,50
2018-02-15T12:56:56.711Z,45
2018-02-15T12:58:06.162Z,35
2018-02-15T12:59:15.459Z,30
2018-02-15T13:00:25.182Z,30
2018-02-15T13:01:35.373Z,30
2018-02-15T13:02:44.615Z,35
2018-02-15T13:03:54.064Z,40
2018-02-15T13:05:03.252Z,35
2018-02-15T13:06:12.482Z,30
2018-02-15T13:07:22.220Z,35
2018-02-15T13:08:31.402Z,35
2018-02-15T13:09:40.872Z,40
2018-02-15T13:10:50.164Z,40
2018-02-15T13:11:59.376Z,40
2018-02-15T13:13:08.828Z,35
2018-02-15T13:14:18.297Z,35
2018-02-15T13:15:27.465Z,35
2018-02-15T13:16:37.184Z,30
2018-02-15T13:17:47.214Z,30
2018-02-15T13:18:56.929Z,30
2018-02-15T13:20:06.452Z,35
2018-02-15T13:21:16.167Z,35
2018-02-15T13:22:25.891Z,40
2018-02-15T13:23:35.606Z,40
2018-02-15T13:24:45.317Z,40
2018-02-15T13:25:54.772Z,35
2018-02-15T13:27:03.696Z,35
2018-02-15T13:28:13.420Z,40
2018-02-15T13:29:23.131Z,40
2018-02-15T13:30:32.593Z,40
2018-02-15T13:31:41.785Z,50
2018-02-15T13:32:51.503Z,45
2018-02-15T13:34:00.954Z,45
2018-02-15T13:35:10.171Z,40
2018-02-15T13:36:19.629Z,35
2018-02-15T13:37:29.082Z,40
2018-02-15T13:38:38.810Z,45
2018-02-15T13:39:48.529Z,45
2018-02-15T13:40:57.978Z,35
2018-02-15T13:42:07.431Z,30
2018-02-15T13:43:16.636Z,30
2018-02-15T13:44:26.368Z,30
2018-02-15T13:45:35.823Z,30
2018-02-15T13:46:45.539Z,30
2018-02-15T13:47:54.728Z,30
2018-02-15T13:49:04.450Z,30
2018-02-15T13:50:13.638Z,30
2018-02-15T13:51:23.363Z,35
2018-02-15T13:52:33.368Z,35
2018-02-15T13:53:43.096Z,35
2018-02-15T13:54:52.546Z,40
2018-02-15T13:56:01.472Z,50
2018-02-15T13:57:10.398Z,55
2018-02-15T13:58:20.115Z,50
2018-02-15T13:59:29.566Z,40
2018-02-15T14:00:38.712Z,35
2018-02-15T14:01:48.441Z,30
2018-02-15T14:02:57.378Z,45
2018-02-15T14:04:07.155Z,60
2018-02-15T14:05:16.607Z,55
2018-02-15T14:06:26.594Z,50
2018-02-15T14:07:36.573Z,50
2018-02-15T14:08:46.025Z,55
2018-02-15T14:09:55.745Z,60
2018-02-15T14:11:05.736Z,65
2018-02-15T14:12:15.190Z,65
2018-02-15T14:13:24.372Z,60
2018-02-15T14:14:33.839Z,55
2018-02-15T14:15:43.289Z,50
2018-02-15T14:16:52.742Z,50
2018-02-15T14:18:02.221Z,50
2018-02-15T14:19:11.430Z,55
2018-02-15T14:20:21.175Z,55
2018-02-15T14:21:30.628Z,60
2018-02-15T14:22:40.613Z,60
2018-02-15T14:23:49.802Z,55
2018-02-15T14:24:59.521Z,50
2018-02-15T14:26:09.057Z,45
2018-02-15T14:27:18.282Z,45
2018-02-15T14:28:28.081Z,45
2018-02-15T14:29:37.560Z,45
2018-02-15T14:30:47.018Z,40
2018-02-15T14:31:56.553Z,40
2018-02-15T14:33:06.048Z,30
2018-02-15T14:34:15.501Z,30
2018-02-15T14:35:24.960Z,40
2018-02-15T14:36:34.486Z,35
2018-02-15T14:37:44.519Z,40
2018-02-15T14:38:54.243Z,35
2018-02-15T14:40:04.232Z,35
2018-02-15T14:41:13.961Z,30
2018-02-15T14:42:23.424Z,30
2018-02-15T14:43:33.149Z,25
2018-02-15T14:44:42.901Z,30
2018-02-15T14:45:52.361Z,25
2018-02-15T14:47:02.082Z,20
2018-02-15T14:48:11.529Z,20
2018-02-15T14:49:20.453Z,25
2018-02-15T14:50:30.175Z,20
2018-02-15T14:51:39.889Z,15
2018-02-15T14:52:49.484Z,15
2018-02-15T14:53:58.934Z,15
2018-02-15T14:55:08.916Z,15
2018-02-15T14:56:18.632Z,20
2018-02-15T14:57:27.555Z,20
2018-02-15T14:58:37.008Z,15
2018-02-15T14:59:46.725Z,15
2018-02-15T15:00:56.177Z,15
2018-02-15T15:02:05.904Z,15
2018-02-15T15:03:15.357Z,10
2018-02-15T15:04:24.824Z,10
2018-02-15T15:05:34.541Z,10
2018-02-15T15:06:44.088Z,15
2018-02-15T15:07:54.089Z,15
2018-02-15T15:09:03.278Z,15
2018-02-15T15:10:13.260Z,15
2018-02-15T15:11:23.234Z,10
2018-02-15T15:12:32.999Z,10
2018-02-15T15:13:42.755Z,10
2018-02-15T15:14:51.939Z,15
2018-02-15T15:16:01.395Z,15
2018-02-15T15:17:10.851Z,15
2018-02-15T15:18:20.400Z,20
2018-02-15T15:19:29.283Z,20
2018-02-15T15:20:39.003Z,15
2018-02-15T15:21:48.457Z,15
2018-02-15T15:22:57.915Z,10
2018-02-15T15:24:07.940Z,15
2018-02-15T15:25:17.128Z,15
2018-02-15T15:26:26.054Z,10
2018-02-15T15:27:35.502Z,10
2018-02-15T15:28:45.226Z,10
2018-02-15T15:29:55.209Z,10
2018-02-15T15:31:04.482Z,10
2018-02-15T15:32:13.934Z,10
2018-02-15T15:33:23.643Z,10
2018-02-15T15:34:33.356Z,15
2018-02-15T15:35:42.675Z,15
2018-02-15T15:36:52.123Z,15
2018-02-15T15:38:01.842Z,20
2018-02-15T15:39:11.291Z,15
2018-02-15T15:40:21.016Z,15
2018-02-15T15:41:30.996Z,15
2018-02-15T15:42:40.708Z,15
2018-02-15T15:43:50.161Z,15
2018-02-15T15:44:59.350Z,20
2018-02-15T15:46:08.844Z,20
2018-02-15T15:47:18.296Z,25
2018-02-15T15:48:27.221Z,20
2018-02-15T15:49:36.676Z,20
2018-02-15T15:50:46.394Z,20
2018-02-15T15:51:55.846Z,15
2018-02-15T15:53:05.036Z,15
2018-02-15T15:54:14.490Z,15
2018-02-15T15:55:24.480Z,15
2018-02-15T15:56:33.937Z,15
2018-02-15T15:57:43.921Z,15
2018-02-15T15:58:53.971Z,15
2018-02-15T16:00:03.483Z,15
2018-02-15T16:01:12.944Z,15
2018-02-15T16:02:22.660Z,15
2018-02-15T16:03:32.123Z,15
2018-02-15T16:04:42.107Z,10
2018-02-15T16:05:51.561Z,10
2018-02-15T16:07:01.542Z,10
2018-02-15T16:08:10.732Z,10
2018-02-15T16:09:20.241Z,10
2018-02-15T16:10:29.703Z,10
2018-02-15T16:11:39.208Z,10
2018-02-15T16:12:48.931Z,10
2018-02-15T16:13:58.653Z,10
2018-02-15T16:15:07.839Z,10
2018-02-15T16:16:16.774Z,10
2018-02-15T16:17:25.967Z,10
2018-02-15T16:18:35.483Z,10
2018-02-15T16:19:44.938Z,5
2018-02-15T16:20:54.390Z,5
2018-02-15T16:22:04.411Z,5
2018-02-15T16:23:13.602Z,5
2018-02-15T16:24:23.387Z,5
2018-02-15T16:25:32.836Z,5
2018-02-15T16:26:42.290Z,5
2018-02-15T16:27:52.021Z,5
2018-02-15T16:29:01.205Z,5
2018-02-15T16:30:10.389Z,5
2018-02-15T16:31:20.104Z,5
2018-02-15T16:32:29.617Z,5
2018-02-15T16:33:39.069Z,5
2018-02-15T16:34:48.257Z,0
2018-02-15T16:35:57.982Z,0
2018-02-15T16:37:07.702Z,0
2018-02-15T16:38:17.159Z,0
2018-02-15T16:39:26.960Z,0
2018-02-15T16:40:36.251Z,0
2018-02-15T16:41:45.478Z,0
2018-02-15T16:42:55.194Z,0
2018-02-15T16:44:04.383Z,0
2018-02-15T16:45:14.365Z,0
2018-02-15T16:46:23.020Z,0
2018-02-15T16:47:33.011Z,0
2018-02-15T16:48:42.461Z,0